sensor_id;sensor_type;location;lat;lon;timestamp;pressure;altitude;pressure_sealevel;temperature;humidity
46408;BME280;32110;45.724;21.276;2023-02-13T00:24:42;102636.16;;;-1.21;nan
46408;BME280;32110;45.724;21.276;2023-02-13T00:27:08;102721.22;;;-0.73;nan
46408;BME280;32110;45.724;21.276;2023-02-13T00:29:33;102633.94;;;-1.27;nan
46408;BME280;32110;45.724;21.276;2023-02-13T00:31:59;102574.13;;;-1.64;nan
46408;BME280;32110;45.724;21.276;2023-02-13T00:34:25;102645.56;;;-1.20;nan
46408;BME280;32110;45.724;21.276;2023-02-13T00:36:51;102628.06;;;-1.29;nan
46408;BME280;32110;45.724;21.276;2023-02-13T00:39:16;102631.06;;;-1.37;nan
46408;BME280;32110;45.724;21.276;2023-02-13T00:41:41;102641.88;;;-1.30;nan
46408;BME280;32110;45.724;21.276;2023-02-13T00:44:08;102645.13;;;-1.26;nan
46408;BME280;32110;45.724;21.276;2023-02-13T00:46:33;102647.06;;;-1.30;nan
46408;BME280;32110;45.724;21.276;2023-02-13T00:48:59;102643.56;;;-1.29;nan
46408;BME280;32110;45.724;21.276;2023-02-13T00:51:24;102617.31;;;-1.37;nan
46408;BME280;32110;45.724;21.276;2023-02-13T00:53:50;102627.19;;;-1.30;nan
46408;BME280;32110;45.724;21.276;2023-02-13T00:56:15;102622.88;;;-1.29;nan
46408;BME280;32110;45.724;21.276;2023-02-13T00:58:40;102626.75;;;-1.22;nan
46408;BME280;32110;45.724;21.276;2023-02-13T01:01:06;102627.47;;;-1.20;nan
46408;BME280;32110;45.724;21.276;2023-02-13T01:03:31;102638.41;;;-1.15;nan
46408;BME280;32110;45.724;21.276;2023-02-13T01:05:57;102630.72;;;-1.16;nan
46408;BME280;32110;45.724;21.276;2023-02-13T01:08:22;102634.31;;;-1.19;nan
46408;BME280;32110;45.724;21.276;2023-02-13T01:10:48;102631.19;;;-1.24;nan
46408;BME280;32110;45.724;21.276;2023-02-13T01:13:15;102620.56;;;-1.34;nan
46408;BME280;32110;45.724;21.276;2023-02-13T01:15:43;102602.75;;;-1.38;nan
46408;BME280;32110;45.724;21.276;2023-02-13T01:18:09;102612.81;;;-1.34;nan
46408;BME280;32110;45.724;21.276;2023-02-13T01:20:36;102639.97;;;-1.26;nan
46408;BME280;32110;45.724;21.276;2023-02-13T01:23:02;102627.78;;;-1.39;nan
46408;BME280;32110;45.724;21.276;2023-02-13T01:25:27;102636.09;;;-1.34;nan
46408;BME280;32110;45.724;21.276;2023-02-13T01:27:53;102631.06;;;-1.37;nan
46408;BME280;32110;45.724;21.276;2023-02-13T01:30:18;102632.84;;;-1.37;nan
46408;BME280;32110;45.724;21.276;2023-02-13T01:32:45;102638.66;;;-1.34;nan
46408;BME280;32110;45.724;21.276;2023-02-13T01:35:11;102635.41;;;-1.37;nan
46408;BME280;32110;45.724;21.276;2023-02-13T01:37:37;102638.47;;;-1.45;nan
46408;BME280;32110;45.724;21.276;2023-02-13T01:40:04;102639.09;;;-1.56;nan
46408;BME280;32110;45.724;21.276;2023-02-13T01:42:33;102622.41;;;-1.64;nan
46408;BME280;32110;45.724;21.276;2023-02-13T01:45:01;102634.03;;;-1.57;nan
46408;BME280;32110;45.724;21.276;2023-02-13T01:47:43;102643.91;;;-1.50;nan
46408;BME280;32110;45.724;21.276;2023-02-13T01:50:23;102627.94;;;-1.56;nan
46408;BME280;32110;45.724;21.276;2023-02-13T01:53:40;102626.47;;;-1.60;nan
46408;BME280;32110;45.724;21.276;2023-02-13T01:55:48;102615.38;;;-1.62;nan
46408;BME280;32110;45.724;21.276;2023-02-13T01:58:18;102621.38;;;-1.62;nan
46408;BME280;32110;45.724;21.276;2023-02-13T02:00:45;102624.50;;;-1.57;nan
46408;BME280;32110;45.724;21.276;2023-02-13T02:05:54;102632.75;;;-1.50;nan
46408;BME280;32110;45.724;21.276;2023-02-13T03:48:40;102690.59;;;-2.45;nan
46408;BME280;32110;45.724;21.276;2023-02-13T03:51:31;102690.00;;;-2.50;nan
46408;BME280;32110;45.724;21.276;2023-02-13T10:57:21;102686.44;;;4.25;nan
46408;BME280;32110;45.724;21.276;2023-02-13T11:42:27;102652.22;;;5.70;nan
46408;BME280;32110;45.724;21.276;2023-02-13T11:45:03;102662.81;;;5.79;nan
46408;BME280;32110;45.724;21.276;2023-02-13T11:47:32;102646.16;;;5.80;nan
46408;BME280;32110;45.724;21.276;2023-02-13T11:49:58;102652.75;;;5.93;nan
46408;BME280;32110;45.724;21.276;2023-02-13T11:52:27;102650.13;;;5.93;nan
46408;BME280;32110;45.724;21.276;2023-02-13T11:54:58;102652.63;;;6.05;nan
46408;BME280;32110;45.724;21.276;2023-02-13T11:59:59;102640.41;;;5.95;nan
46408;BME280;32110;45.724;21.276;2023-02-13T12:02:29;102632.13;;;5.90;nan
46408;BME280;32110;45.724;21.276;2023-02-13T12:05:17;102642.28;;;6.13;nan
46408;BME280;32110;45.724;21.276;2023-02-13T12:07:44;102623.03;;;6.14;nan
46408;BME280;32110;45.724;21.276;2023-02-13T12:10:22;102647.09;;;6.37;nan
46408;BME280;32110;45.724;21.276;2023-02-13T12:12:57;102639.34;;;6.45;nan
46408;BME280;32110;45.724;21.276;2023-02-13T12:15:29;102633.28;;;6.45;nan
46408;BME280;32110;45.724;21.276;2023-02-13T12:20:42;102631.84;;;6.60;nan
46408;BME280;32110;45.724;21.276;2023-02-13T12:23:30;102636.78;;;6.73;nan
46408;BME280;32110;45.724;21.276;2023-02-13T12:31:27;102625.53;;;6.90;nan
46408;BME280;32110;45.724;21.276;2023-02-13T12:39:34;102610.50;;;6.92;nan
46408;BME280;32110;45.724;21.276;2023-02-13T12:42:30;102606.16;;;7.01;nan
46408;BME280;32110;45.724;21.276;2023-02-13T12:47:53;102596.59;;;7.10;nan
46408;BME280;32110;45.724;21.276;2023-02-13T12:50:44;102603.03;;;7.15;nan
46408;BME280;32110;45.724;21.276;2023-02-13T12:53:52;102598.03;;;7.22;nan
46408;BME280;32110;45.724;21.276;2023-02-13T12:59:06;102583.06;;;7.32;nan
46408;BME280;32110;45.724;21.276;2023-02-13T13:02:12;102590.47;;;7.37;nan
46408;BME280;32110;45.724;21.276;2023-02-13T13:04:51;102584.09;;;7.39;nan
46408;BME280;32110;45.724;21.276;2023-02-13T13:13:11;102567.78;;;7.45;nan
46408;BME280;32110;45.724;21.276;2023-02-13T13:28:44;102571.50;;;7.79;nan
46408;BME280;32110;45.724;21.276;2023-02-13T13:33:40;102560.34;;;7.77;nan
46408;BME280;32110;45.724;21.276;2023-02-13T13:36:42;102557.84;;;7.75;nan
46408;BME280;32110;45.724;21.276;2023-02-13T13:42:24;102546.59;;;7.57;nan
46408;BME280;32110;45.724;21.276;2023-02-13T13:50:41;102555.13;;;7.23;nan
46408;BME280;32110;45.724;21.276;2023-02-13T13:53:16;102555.53;;;7.28;nan
46408;BME280;32110;45.724;21.276;2023-02-13T13:58:44;102564.88;;;7.13;nan
46408;BME280;32110;45.724;21.276;2023-02-13T14:03:56;102564.25;;;7.01;nan
46408;BME280;32110;45.724;21.276;2023-02-13T14:09:42;102557.38;;;7.18;nan
46408;BME280;32110;45.724;21.276;2023-02-13T14:12:35;102551.09;;;7.29;nan
46408;BME280;32110;45.724;21.276;2023-02-13T14:15:01;102537.84;;;7.12;nan
46408;BME280;32110;45.724;21.276;2023-02-13T14:20:21;102548.38;;;7.20;nan
46408;BME280;32110;45.724;21.276;2023-02-13T14:22:50;102544.06;;;7.11;nan
46408;BME280;32110;45.724;21.276;2023-02-13T14:25:24;102529.00;;;6.95;nan
46408;BME280;32110;45.724;21.276;2023-02-13T14:28:01;102524.34;;;6.89;nan
46408;BME280;32110;45.724;21.276;2023-02-13T14:30:33;102535.06;;;6.96;nan
46408;BME280;32110;45.724;21.276;2023-02-13T14:33:05;102538.03;;;6.83;nan
46408;BME280;32110;45.724;21.276;2023-02-13T14:35:36;102524.22;;;6.91;nan
46408;BME280;32110;45.724;21.276;2023-02-13T14:38:04;102519.78;;;6.91;nan
46408;BME280;32110;45.724;21.276;2023-02-13T14:40:43;102532.69;;;7.02;nan
46408;BME280;32110;45.724;21.276;2023-02-13T14:46:08;102534.41;;;7.12;nan
46408;BME280;32110;45.724;21.276;2023-02-13T14:51:32;102535.22;;;7.12;nan
46408;BME280;32110;45.724;21.276;2023-02-13T14:54:04;102521.31;;;7.12;nan
46408;BME280;32110;45.724;21.276;2023-02-13T14:56:30;102508.56;;;6.99;nan
46408;BME280;32110;45.724;21.276;2023-02-13T14:59:11;102524.50;;;7.06;nan
46408;BME280;32110;45.724;21.276;2023-02-13T15:01:46;102503.69;;;6.86;nan
46408;BME280;32110;45.724;21.276;2023-02-13T16:41:50;102513.28;;;5.65;nan
46408;BME280;32110;45.724;21.276;2023-02-13T16:44:27;102519.59;;;5.53;nan
46408;BME280;32110;45.724;21.276;2023-02-13T16:47:01;102521.97;;;5.37;nan
46408;BME280;32110;45.724;21.276;2023-02-13T16:49:35;102520.16;;;5.27;nan
46408;BME280;32110;45.724;21.276;2023-02-13T16:52:30;102514.78;;;5.19;nan
46408;BME280;32110;45.724;21.276;2023-02-13T17:24:13;102520.66;;;4.32;nan
46408;BME280;32110;45.724;21.276;2023-02-13T17:26:40;102516.66;;;4.28;nan
46408;BME280;32110;45.724;21.276;2023-02-13T17:29:06;102512.69;;;4.24;nan
46408;BME280;32110;45.724;21.276;2023-02-13T17:41:14;102497.59;;;3.76;nan
46408;BME280;32110;45.724;21.276;2023-02-13T17:43:40;102490.69;;;3.65;nan
46408;BME280;32110;45.724;21.276;2023-02-13T17:46:05;102483.75;;;3.54;nan
46408;BME280;32110;45.724;21.276;2023-02-13T17:48:31;102481.66;;;3.48;nan
46408;BME280;32110;45.724;21.276;2023-02-13T17:50:56;102491.25;;;3.48;nan
46408;BME280;32110;45.724;21.276;2023-02-13T17:53:27;102478.78;;;3.30;nan
46408;BME280;32110;45.724;21.276;2023-02-13T17:55:54;102487.00;;;3.26;nan
46408;BME280;32110;45.724;21.276;2023-02-13T17:58:19;102477.44;;;3.15;nan
46408;BME280;32110;45.724;21.276;2023-02-13T18:00:45;102486.31;;;3.12;nan
46408;BME280;32110;45.724;21.276;2023-02-13T18:03:11;102467.56;;;2.97;nan
46408;BME280;32110;45.724;21.276;2023-02-13T18:05:37;102472.19;;;2.94;nan
46408;BME280;32110;45.724;21.276;2023-02-13T18:08:03;102460.78;;;2.74;nan
46408;BME280;32110;45.724;21.276;2023-02-13T18:10:31;102474.34;;;2.77;nan
46408;BME280;32110;45.724;21.276;2023-02-13T18:12:58;102448.28;;;2.57;nan
46408;BME280;32110;45.724;21.276;2023-02-13T18:15:34;102472.72;;;2.65;nan
46408;BME280;32110;45.724;21.276;2023-02-13T18:18:00;102462.38;;;2.54;nan
46408;BME280;32110;45.724;21.276;2023-02-13T18:20:25;102468.03;;;2.59;nan
46408;BME280;32110;45.724;21.276;2023-02-13T18:22:51;102467.44;;;2.55;nan
46408;BME280;32110;45.724;21.276;2023-02-13T18:25:18;102466.84;;;2.52;nan
46408;BME280;32110;45.724;21.276;2023-02-13T18:27:43;102442.19;;;2.35;nan
46408;BME280;32110;45.724;21.276;2023-02-13T18:30:10;102466.50;;;2.45;nan
46408;BME280;32110;45.724;21.276;2023-02-13T18:32:36;102464.25;;;2.41;nan
46408;BME280;32110;45.724;21.276;2023-02-13T18:35:02;102460.59;;;2.32;nan
46408;BME280;32110;45.724;21.276;2023-02-13T18:37:27;102466.03;;;2.29;nan
46408;BME280;32110;45.724;21.276;2023-02-13T18:39:54;102443.00;;;2.13;nan
46408;BME280;32110;45.724;21.276;2023-02-13T18:42:20;102456.34;;;2.20;nan
46408;BME280;32110;45.724;21.276;2023-02-13T18:44:45;102447.63;;;2.09;nan
46408;BME280;32110;45.724;21.276;2023-02-13T18:47:11;102452.94;;;2.08;nan
46408;BME280;32110;45.724;21.276;2023-02-13T18:49:36;102443.25;;;1.99;nan
46408;BME280;32110;45.724;21.276;2023-02-13T18:52:02;102446.78;;;1.98;nan
46408;BME280;32110;45.724;21.276;2023-02-13T18:54:27;102405.66;;;1.58;nan
46408;BME280;32110;45.724;21.276;2023-02-13T18:56:53;102441.00;;;1.72;nan
46408;BME280;32110;45.724;21.276;2023-02-13T18:59:18;102432.34;;;1.60;nan
46408;BME280;32110;45.724;21.276;2023-02-13T19:01:44;102434.38;;;1.56;nan
46408;BME280;32110;45.724;21.276;2023-02-13T19:04:10;102420.41;;;1.46;nan
46408;BME280;32110;45.724;21.276;2023-02-13T19:06:38;102430.44;;;1.39;nan
46408;BME280;32110;45.724;21.276;2023-02-13T19:09:05;102415.16;;;1.23;nan
46408;BME280;32110;45.724;21.276;2023-02-13T19:11:30;102365.53;;;0.93;nan
46408;BME280;32110;45.724;21.276;2023-02-13T19:13:59;102428.25;;;1.22;nan
46408;BME280;32110;45.724;21.276;2023-02-13T19:16:26;102412.03;;;1.07;nan
46408;BME280;32110;45.724;21.276;2023-02-13T19:18:54;102427.63;;;1.07;nan
46408;BME280;32110;45.724;21.276;2023-02-13T19:21:22;102428.91;;;1.01;nan
46408;BME280;32110;45.724;21.276;2023-02-13T19:23:48;102425.34;;;0.91;nan
46408;BME280;32110;45.724;21.276;2023-02-13T19:26:17;102421.53;;;0.84;nan
46408;BME280;32110;45.724;21.276;2023-02-13T19:28:45;102423.06;;;0.87;nan
46408;BME280;32110;45.724;21.276;2023-02-13T19:31:18;102427.03;;;0.79;nan
46408;BME280;32110;45.724;21.276;2023-02-13T19:33:45;102428.41;;;0.72;nan
46408;BME280;32110;45.724;21.276;2023-02-13T19:36:13;102424.88;;;0.73;nan
46408;BME280;32110;45.724;21.276;2023-02-13T19:38:39;102405.97;;;0.60;nan
46408;BME280;32110;45.724;21.276;2023-02-13T19:41:12;102422.63;;;0.69;nan
46408;BME280;32110;45.724;21.276;2023-02-13T19:43:39;102423.56;;;0.68;nan
46408;BME280;32110;45.724;21.276;2023-02-13T19:46:07;102425.22;;;0.69;nan
46408;BME280;32110;45.724;21.276;2023-02-13T19:48:40;102422.03;;;0.65;nan
46408;BME280;32110;45.724;21.276;2023-02-13T19:51:12;102432.97;;;0.69;nan
46408;BME280;32110;45.724;21.276;2023-02-13T19:53:38;102402.50;;;0.48;nan
46408;BME280;32110;45.724;21.276;2023-02-13T19:56:05;102428.03;;;0.66;nan
46408;BME280;32110;45.724;21.276;2023-02-13T19:58:31;102409.22;;;0.75;nan
46408;BME280;32110;45.724;21.276;2023-02-13T20:01:14;102412.06;;;0.83;nan
46408;BME280;32110;45.724;21.276;2023-02-13T20:03:41;102435.91;;;0.88;nan
46408;BME280;32110;45.724;21.276;2023-02-13T20:06:18;102426.19;;;0.79;nan
46408;BME280;32110;45.724;21.276;2023-02-13T20:08:44;102411.91;;;0.73;nan
46408;BME280;32110;45.724;21.276;2023-02-13T20:11:11;102413.78;;;0.71;nan
46408;BME280;32110;45.724;21.276;2023-02-13T20:13:37;102398.47;;;0.68;nan
46408;BME280;32110;45.724;21.276;2023-02-13T20:16:11;102399.28;;;0.69;nan
46408;BME280;32110;45.724;21.276;2023-02-13T20:18:37;102391.78;;;0.53;nan
46408;BME280;32110;45.724;21.276;2023-02-13T20:21:07;102391.16;;;0.49;nan
46408;BME280;32110;45.724;21.276;2023-02-13T20:23:33;102370.81;;;0.32;nan
46408;BME280;32110;45.724;21.276;2023-02-13T20:26:10;102382.19;;;0.42;nan
46408;BME280;32110;45.724;21.276;2023-02-13T20:28:38;102377.94;;;0.41;nan
46408;BME280;32110;45.724;21.276;2023-02-13T20:31:09;102380.63;;;0.39;nan
46408;BME280;32110;45.724;21.276;2023-02-13T20:33:36;102385.09;;;0.37;nan
46408;BME280;32110;45.724;21.276;2023-02-13T20:38:34;102380.06;;;0.23;nan
46408;BME280;32110;45.724;21.276;2023-02-13T20:40:59;102377.38;;;0.25;nan
46408;BME280;32110;45.724;21.276;2023-02-13T20:43:30;102391.22;;;0.36;nan
46408;BME280;32110;45.724;21.276;2023-02-13T20:45:56;102386.38;;;0.32;nan
46408;BME280;32110;45.724;21.276;2023-02-13T20:48:22;102369.78;;;0.21;nan
46408;BME280;32110;45.724;21.276;2023-02-13T20:50:59;102385.91;;;0.38;nan
46408;BME280;32110;45.724;21.276;2023-02-13T20:53:25;102369.38;;;0.28;nan
46408;BME280;32110;45.724;21.276;2023-02-13T20:55:51;102381.78;;;0.35;nan
46408;BME280;32110;45.724;21.276;2023-02-13T20:58:17;102337.66;;;0.00;nan
46408;BME280;32110;45.724;21.276;2023-02-13T21:00:43;102376.81;;;0.32;nan
46408;BME280;32110;45.724;21.276;2023-02-13T21:03:08;102370.00;;;0.18;nan
46408;BME280;32110;45.724;21.276;2023-02-13T21:05:33;102377.78;;;0.18;nan
46408;BME280;32110;45.724;21.276;2023-02-13T21:07:59;102372.72;;;0.17;nan
46408;BME280;32110;45.724;21.276;2023-02-13T21:10:24;102379.00;;;0.26;nan
46408;BME280;32110;45.724;21.276;2023-02-13T21:12:50;102356.34;;;0.16;nan
46408;BME280;32110;45.724;21.276;2023-02-13T21:15:15;102376.19;;;0.29;nan
46408;BME280;32110;45.724;21.276;2023-02-13T21:17:42;102356.47;;;0.15;nan
46408;BME280;32110;45.724;21.276;2023-02-13T21:20:08;102360.28;;;0.22;nan
46408;BME280;32110;45.724;21.276;2023-02-13T21:22:33;102358.19;;;0.27;nan
46408;BME280;32110;45.724;21.276;2023-02-13T21:24:58;102346.81;;;0.17;nan
46408;BME280;32110;45.724;21.276;2023-02-13T21:27:24;102361.81;;;0.25;nan
46408;BME280;32110;45.724;21.276;2023-02-13T21:29:49;102371.00;;;0.29;nan
46408;BME280;32110;45.724;21.276;2023-02-13T21:32:14;102371.25;;;0.26;nan
46408;BME280;32110;45.724;21.276;2023-02-13T21:34:40;102366.28;;;0.23;nan
46408;BME280;32110;45.724;21.276;2023-02-13T21:37:05;102376.00;;;0.32;nan
46408;BME280;32110;45.724;21.276;2023-02-13T21:39:31;102378.69;;;0.30;nan
46408;BME280;32110;45.724;21.276;2023-02-13T21:41:56;102358.28;;;0.26;nan
46408;BME280;32110;45.724;21.276;2023-02-13T21:44:21;102369.03;;;0.32;nan
46408;BME280;32110;45.724;21.276;2023-02-13T21:46:47;102349.47;;;0.28;nan
46408;BME280;32110;45.724;21.276;2023-02-13T21:49:15;102366.69;;;0.29;nan
46408;BME280;32110;45.724;21.276;2023-02-13T21:51:41;102335.03;;;0.13;nan
46408;BME280;32110;45.724;21.276;2023-02-13T21:54:07;102363.13;;;0.30;nan
46408;BME280;32110;45.724;21.276;2023-02-13T21:56:36;102370.69;;;0.33;nan
46408;BME280;32110;45.724;21.276;2023-02-13T21:59:02;102365.97;;;0.27;nan
46408;BME280;32110;45.724;21.276;2023-02-13T22:01:33;102382.72;;;0.34;nan
46408;BME280;32110;45.724;21.276;2023-02-13T22:04:05;102347.03;;;0.14;nan
46408;BME280;32110;45.724;21.276;2023-02-13T22:06:32;102394.88;;;0.34;nan
46408;BME280;32110;45.724;21.276;2023-02-13T22:09:03;102381.91;;;0.34;nan
46408;BME280;32110;45.724;21.276;2023-02-13T22:11:30;102387.78;;;0.36;nan
46408;BME280;32110;45.724;21.276;2023-02-13T22:13:57;102356.97;;;0.20;nan
46408;BME280;32110;45.724;21.276;2023-02-13T22:16:26;102388.97;;;0.32;nan
46408;BME280;32110;45.724;21.276;2023-02-13T22:18:51;102384.69;;;0.31;nan
46408;BME280;32110;45.724;21.276;2023-02-13T22:21:19;102387.41;;;0.29;nan
46408;BME280;32110;45.724;21.276;2023-02-13T22:23:45;102390.56;;;0.09;nan
46408;BME280;32110;45.724;21.276;2023-02-13T22:28:40;102373.91;;;0.00;nan
46408;BME280;32110;45.724;21.276;2023-02-13T22:31:06;102401.97;;;0.06;nan
46408;BME280;32110;45.724;21.276;2023-02-13T22:33:33;102401.47;;;0.01;nan
46408;BME280;32110;45.724;21.276;2023-02-13T22:35:59;102397.63;;;-0.06;nan
46408;BME280;32110;45.724;21.276;2023-02-13T22:38:24;102390.09;;;-0.22;nan
46408;BME280;32110;45.724;21.276;2023-02-13T22:40:50;102424.03;;;-0.01;nan
46408;BME280;32110;45.724;21.276;2023-02-13T22:43:15;102396.63;;;-0.16;nan
46408;BME280;32110;45.724;21.276;2023-02-13T22:45:40;102411.91;;;-0.01;nan
46408;BME280;32110;45.724;21.276;2023-02-13T22:48:06;102407.91;;;-0.05;nan
46408;BME280;32110;45.724;21.276;2023-02-13T22:50:32;102400.94;;;-0.04;nan
46408;BME280;32110;45.724;21.276;2023-02-13T22:52:58;102386.56;;;-0.08;nan
46408;BME280;32110;45.724;21.276;2023-02-13T22:55:25;102394.13;;;-0.18;nan
46408;BME280;32110;45.724;21.276;2023-02-13T22:57:50;102398.28;;;-0.28;nan
46408;BME280;32110;45.724;21.276;2023-02-13T23:00:20;102403.03;;;-0.35;nan
46408;BME280;32110;45.724;21.276;2023-02-13T23:02:46;102391.34;;;-0.40;nan
46408;BME280;32110;45.724;21.276;2023-02-13T23:05:12;102383.47;;;-0.39;nan
46408;BME280;32110;45.724;21.276;2023-02-13T23:07:37;102393.41;;;-0.33;nan
46408;BME280;32110;45.724;21.276;2023-02-13T23:10:03;102377.47;;;-0.39;nan
46408;BME280;32110;45.724;21.276;2023-02-13T23:12:29;102417.75;;;-0.23;nan
46408;BME280;32110;45.724;21.276;2023-02-13T23:15:06;102417.13;;;-0.26;nan
46408;BME280;32110;45.724;21.276;2023-02-13T23:17:31;102402.63;;;-0.29;nan
46408;BME280;32110;45.724;21.276;2023-02-13T23:20:16;102406.88;;;-0.28;nan
46408;BME280;32110;45.724;21.276;2023-02-13T23:22:42;102396.22;;;-0.36;nan
46408;BME280;32110;45.724;21.276;2023-02-13T23:25:07;102392.06;;;-0.38;nan
46408;BME280;32110;45.724;21.276;2023-02-13T23:27:34;102413.81;;;-0.28;nan
46408;BME280;32110;45.724;21.276;2023-02-13T23:29:59;102394.75;;;-0.40;nan
46408;BME280;32110;45.724;21.276;2023-02-13T23:32:25;102394.34;;;-0.34;nan
46408;BME280;32110;45.724;21.276;2023-02-13T23:34:51;102377.56;;;-0.41;nan
46408;BME280;32110;45.724;21.276;2023-02-13T23:37:16;102372.28;;;-0.39;nan
46408;BME280;32110;45.724;21.276;2023-02-13T23:39:42;102368.38;;;-0.45;nan
46408;BME280;32110;45.724;21.276;2023-02-13T23:42:07;102383.97;;;-0.34;nan
46408;BME280;32110;45.724;21.276;2023-02-13T23:44:33;102375.50;;;-0.36;nan
46408;BME280;32110;45.724;21.276;2023-02-13T23:46:58;102354.59;;;-0.33;nan
46408;BME280;32110;45.724;21.276;2023-02-13T23:49:23;102337.38;;;-0.34;nan
46408;BME280;32110;45.724;21.276;2023-02-13T23:51:49;102335.09;;;-0.38;nan
46408;BME280;32110;45.724;21.276;2023-02-13T23:54:20;102346.00;;;-0.33;nan
46408;BME280;32110;45.724;21.276;2023-02-13T23:56:48;102364.50;;;-0.27;nan
46408;BME280;32110;45.724;21.276;2023-02-13T23:59:15;102361.91;;;-0.27;nan
